Time;durP1;ratioP1;P1;durP2;ratioP2;P2;SDS_P1;SDS_P2;PMS_P1;PMS_P2;Temp;Humidity;BMP_temperature;BMP_pressure;BME280_temperature;BME280_humidity;BME280_pressure;Samples;Min_cycle;Max_cycle;Signal;HPM_P1;HPM_P2
2021/05/28 00:01:36;;;;;;;17.62;14.85;;;;;;;16.26;100.00;99990.02;1702596;83;21059;-70
2021/05/28 00:04:24;;;;;;;21.52;15.00;;;;;;;16.25;100.00;99989.66;1687019;83;21053;-69
2021/05/28 00:06:59;;;;;;;17.45;14.80;;;;;;;16.21;100.00;99993.45;1706745;82;21043;-67
2021/05/28 00:09:36;;;;;;;20.32;13.25;;;;;;;16.17;100.00;99985.28;1713637;80;21118;-68
2021/05/28 00:12:05;;;;;;;20.82;15.53;;;;;;;16.13;100.00;99992.13;1691238;81;21099;-80
2021/05/28 00:14:34;;;;;;;18.70;14.38;;;;;;;16.13;100.00;99990.80;1660253;85;21583;-78
2021/05/28 00:17:01;;;;;;;18.75;16.35;;;;;;;16.11;100.00;99988.71;1687330;83;21137;-78
2021/05/28 00:19:28;;;;;;;16.77;14.60;;;;;;;16.12;100.00;99988.23;1671804;84;21698;-77
2021/05/28 00:21:55;;;;;;;12.15;10.82;;;;;;;16.13;100.00;99994.78;1682112;84;21124;-78
2021/05/28 00:24:22;;;;;;;19.90;15.13;;;;;;;16.17;100.00;99987.94;1637757;86;21907;-78
2021/05/28 00:26:49;;;;;;;11.75;9.50;;;;;;;16.17;100.00;99988.79;1679863;84;21127;-76
2021/05/28 00:29:17;;;;;;;20.82;16.15;;;;;;;16.18;100.00;99985.68;1682763;84;21106;-78
2021/05/28 00:31:44;;;;;;;22.82;16.32;;;;;;;16.18;100.00;99989.67;1680491;85;22068;-78
2021/05/28 00:34:10;;;;;;;18.55;13.35;;;;;;;16.17;100.00;99987.45;1666875;84;21117;-80
2021/05/28 00:36:37;;;;;;;19.02;15.88;;;;;;;16.16;100.00;99985.77;1688120;83;21120;-81
2021/05/28 00:39:04;;;;;;;18.80;15.28;;;;;;;16.15;100.00;99988.91;1680496;84;21172;-80
2021/05/28 00:41:31;;;;;;;19.65;16.07;;;;;;;16.13;100.00;99988.14;1678098;84;21159;-80
2021/05/28 00:43:58;;;;;;;21.37;17.82;;;;;;;16.09;100.00;99982.64;1690859;84;21076;-78
2021/05/28 00:46:26;;;;;;;24.95;16.85;;;;;;;16.08;100.00;99977.41;1668369;85;21101;-81
2021/05/28 00:48:54;;;;;;;20.65;16.48;;;;;;;16.03;100.00;99978.17;1666033;85;21658;-79
2021/05/28 00:51:23;;;;;;;17.05;14.98;;;;;;;16.01;100.00;99978.29;1668992;85;21218;-78
2021/05/28 00:53:51;;;;;;;20.52;15.08;;;;;;;16.01;100.00;99984.93;1640302;85;21144;-78
2021/05/28 00:56:19;;;;;;;23.35;17.02;;;;;;;16.03;100.00;99982.16;1675023;84;21138;-78
2021/05/28 00:58:48;;;;;;;19.98;16.10;;;;;;;16.02;100.00;99974.67;1667107;85;21673;-78
2021/05/28 01:01:14;;;;;;;23.02;17.37;;;;;;;15.98;100.00;99970.49;1657192;85;21691;-77
2021/05/28 01:03:42;;;;;;;23.57;17.82;;;;;;;15.94;100.00;99972.95;1675519;84;21200;-78
2021/05/28 01:06:09;;;;;;;22.37;16.15;;;;;;;15.89;100.00;99967.08;1673846;84;21081;-78
2021/05/28 01:08:38;;;;;;;25.43;17.40;;;;;;;15.85;100.00;99969.53;1671332;85;21088;-78
2021/05/28 01:11:06;;;;;;;19.92;15.45;;;;;;;15.81;100.00;99961.41;1675207;84;21096;-77
2021/05/28 01:13:33;;;;;;;19.65;16.23;;;;;;;15.78;100.00;99962.45;1671117;85;21135;-77
2021/05/28 01:16:02;;;;;;;21.97;16.62;;;;;;;15.75;100.00;99967.92;1672090;84;21354;-78
2021/05/28 01:18:29;;;;;;;15.65;12.85;;;;;;;15.75;100.00;99965.75;1674838;83;21068;-76
2021/05/28 01:20:56;;;;;;;22.37;16.93;;;;;;;15.75;100.00;99959.11;1673543;84;21127;-77
2021/05/28 01:23:24;;;;;;;20.20;16.12;;;;;;;15.78;100.00;99961.56;1675712;85;21103;-77
2021/05/28 01:25:51;;;;;;;15.55;13.90;;;;;;;15.78;100.00;99964.22;1675667;85;21112;-77
2021/05/28 01:28:19;;;;;;;25.68;19.07;;;;;;;15.80;100.00;99970.30;1687638;84;21084;-75
2021/05/28 01:30:46;;;;;;;12.47;9.73;;;;;;;15.81;100.00;99966.71;1691619;83;21096;-77
2021/05/28 01:33:13;;;;;;;21.82;16.48;;;;;;;15.80;100.00;99970.30;1691342;84;21108;-76
2021/05/28 01:35:40;;;;;;;21.37;17.27;;;;;;;15.83;100.00;99968.80;1694724;83;21084;-71
2021/05/28 01:38:07;;;;;;;19.70;11.63;;;;;;;15.84;100.00;99969.17;1694922;83;21173;-77
2021/05/28 01:40:34;;;;;;;20.75;16.97;;;;;;;15.84;100.00;99966.52;1646982;85;21075;-75
2021/05/28 01:43:02;;;;;;;19.77;15.13;;;;;;;15.84;100.00;99967.84;1652810;86;21594;-76
2021/05/28 01:45:28;;;;;;;20.32;17.62;;;;;;;15.81;100.00;99959.59;1646700;86;21127;-79
2021/05/28 01:47:56;;;;;;;21.27;16.70;;;;;;;15.82;100.00;99960.44;1662604;85;21069;-77
2021/05/28 01:50:23;;;;;;;10.82;9.13;;;;;;;15.83;100.00;99966.14;1685517;84;21127;-78
2021/05/28 01:52:51;;;;;;;22.02;16.73;;;;;;;15.82;100.00;99973.72;1672160;85;21108;-77
2021/05/28 01:55:20;;;;;;;18.87;16.20;;;;;;;15.82;100.00;99973.23;1672777;84;21084;-77
2021/05/28 01:57:47;;;;;;;17.55;14.05;;;;;;;15.80;100.00;99967.64;1671409;85;21136;-78
2021/05/28 02:00:16;;;;;;;22.07;16.70;;;;;;;15.79;100.00;99971.26;1666030;84;21117;-77
2021/05/28 02:02:43;;;;;;;20.60;16.70;;;;;;;15.78;100.00;99970.41;1675841;84;21126;-77
2021/05/28 02:05:10;;;;;;;22.58;18.02;;;;;;;15.77;100.00;99962.53;1672954;84;21207;-76
2021/05/28 02:07:39;;;;;;;26.95;18.40;;;;;;;15.72;100.00;99965.47;1671609;85;21124;-76
2021/05/28 02:10:07;;;;;;;21.68;18.15;;;;;;;15.67;100.00;99964.39;1671668;85;21119;-77
2021/05/28 02:12:34;;;;;;;23.15;18.37;;;;;;;15.62;100.00;99961.16;1672035;82;21080;-73
2021/05/28 02:15:04;;;;;;;20.75;16.70;;;;;;;15.57;100.00;99963.70;1666413;84;21878;-72
2021/05/28 02:17:31;;;;;;;22.45;17.17;;;;;;;15.52;100.00;99966.15;1695431;84;21112;-73
2021/05/28 02:19:58;;;;;;;21.97;18.15;;;;;;;15.51;100.00;99966.27;1698378;83;21660;-73
2021/05/28 02:22:25;;;;;;;21.17;15.98;;;;;;;15.52;100.00;99961.32;1697578;83;21071;-74
2021/05/28 02:25:01;;;;;;;20.70;17.42;;;;;;;15.54;100.00;99951.47;1692645;80;78310;-94
2021/05/28 02:27:31;;;;;;;21.40;16.37;;;;;;;15.57;100.00;99949.95;1712138;82;21277;-94
2021/05/28 02:30:02;;;;;;;15.48;13.13;;;;;;;15.59;100.00;99952.04;1715311;82;21587;-96
2021/05/28 02:32:36;;;;;;;20.30;17.20;;;;;;;15.63;100.00;99954.05;1735384;81;21088;-96
2021/05/28 02:35:07;;;;;;;11.65;9.30;;;;;;;15.64;100.00;99949.95;1719161;81;21127;-96
2021/05/28 02:37:37;;;;;;;18.40;15.17;;;;;;;15.66;100.00;99953.38;1740563;81;21041;-96
2021/05/28 02:40:13;;;;;;;24.15;17.85;;;;;;;15.70;100.00;99958.91;1737097;82;21061;-96
2021/05/28 02:42:52;;;;;;;11.68;10.10;;;;;;;15.73;100.00;99958.75;1734421;81;21595;-96
2021/05/28 02:45:24;;;;;;;21.07;17.40;;;;;;;15.73;100.00;99956.09;1706520;81;21041;-96
2021/05/28 02:47:59;;;;;;;22.52;18.10;;;;;;;15.77;100.00;99958.55;1704443;81;21102;-96
2021/05/28 02:50:32;;;;;;;22.55;17.52;;;;;;;15.79;100.00;99957.98;1677671;82;21025;-96
2021/05/28 02:53:07;;;;;;;26.33;17.45;;;;;;;15.79;100.00;99963.30;1708285;83;21045;-96
2021/05/28 02:55:38;;;;;;;23.30;18.17;;;;;;;15.80;100.00;99959.67;1709517;82;21550;-96
2021/05/28 02:58:11;;;;;;;25.57;17.92;;;;;;;15.81;100.00;99962.25;1735304;80;20953;-95
2021/05/28 03:00:45;;;;;;;23.30;17.62;;;;;;;15.84;100.00;99958.55;1771070;80;21052;-94
2021/05/28 03:03:26;;;;;;;21.10;16.95;;;;;;;15.85;100.00;99942.98;1765863;81;21759;-96
2021/05/28 03:05:59;;;;;;;23.00;17.07;;;;;;;15.85;100.00;99944.31;1773536;79;22261;-94
2021/05/28 03:08:33;;;;;;;22.17;17.48;;;;;;;15.84;100.00;99945.27;1772590;79;21005;-94
2021/05/28 03:11:10;;;;;;;19.52;16.52;;;;;;;15.86;100.00;99941.57;1768273;80;21084;-96
2021/05/28 03:13:49;;;;;;;21.07;18.02;;;;;;;15.90;100.00;99930.30;1762021;79;20976;-96
2021/05/28 03:16:23;;;;;;;25.23;18.27;;;;;;;15.94;100.00;99936.65;1763323;79;21068;-95
2021/05/28 03:18:59;;;;;;;20.65;15.00;;;;;;;15.87;100.00;99909.22;1769830;79;20901;-96
2021/05/28 03:24:08;;;;;;;23.50;18.80;;;;;;;16.06;100.00;99909.79;1763397;78;21026;-94
2021/05/28 03:26:46;;;;;;;14.87;11.83;;;;;;;16.25;100.00;99933.86;1774847;78;21028;-96
2021/05/28 03:29:20;;;;;;;22.87;17.20;;;;;;;16.37;100.00;99933.06;1764773;78;75317;-77
2021/05/28 03:31:47;;;;;;;26.57;18.42;;;;;;;16.50;100.00;99935.31;1725585;80;21099;-74
2021/05/28 03:37:12;;;;;;;34.03;18.37;;;;;;;16.80;100.00;99936.95;1795883;77;22776;-71
2021/05/28 03:39:40;;;;;;;36.13;19.77;;;;;;;16.85;100.00;99945.48;1751326;80;21103;-70
2021/05/28 03:42:07;;;;;;;26.07;17.75;;;;;;;16.89;100.00;99943.48;1759192;80;21099;-71
2021/05/28 03:44:34;;;;;;;30.40;17.95;;;;;;;16.92;100.00;99941.45;1756007;80;21012;-72
2021/05/28 03:47:02;;;;;;;20.57;11.53;;;;;;;16.96;100.00;99942.97;1755603;80;21537;-73
2021/05/28 03:49:29;;;;;;;29.57;17.17;;;;;;;16.98;100.00;99939.73;1751255;80;21677;-72
2021/05/28 03:51:56;;;;;;;39.67;19.10;;;;;;;17.04;100.00;99942.92;1751943;80;21071;-72
2021/05/28 03:54:23;;;;;;;32.70;16.80;;;;;;;17.05;100.00;99943.32;1756837;81;21091;-73
2021/05/28 03:56:50;;;;;;;32.00;19.55;;;;;;;17.07;100.00;99946.25;1718274;83;21139;-72
2021/05/28 03:59:17;;;;;;;29.18;20.27;;;;;;;17.07;100.00;99948.03;1707285;83;21021;-72
2021/05/28 04:01:47;;;;;;;26.50;19.82;;;;;;;17.06;100.00;99951.66;1692569;84;21114;-72
2021/05/28 04:04:15;;;;;;;29.37;21.85;;;;;;;17.04;100.00;99948.25;1693427;84;21139;-78
2021/05/28 04:06:43;;;;;;;31.05;21.97;;;;;;;17.03;100.00;99954.53;1693198;83;21690;-82
2021/05/28 04:09:10;;;;;;;30.82;22.80;;;;;;;17.04;100.00;99953.56;1693338;83;21112;-86
2021/05/28 04:11:37;;;;;;;29.63;23.05;;;;;;;17.05;100.00;99948.16;1693229;83;21993;-79
2021/05/28 04:14:04;;;;;;;27.70;21.62;;;;;;;17.08;100.00;99949.75;1693456;84;21133;-70
2021/05/28 04:16:31;;;;;;;31.77;22.90;;;;;;;17.14;100.00;99954.67;1711251;83;21067;-72
2021/05/28 04:18:59;;;;;;;31.05;22.52;;;;;;;17.15;100.00;99945.72;1692884;83;21886;-71
2021/05/28 04:21:27;;;;;;;29.07;21.87;;;;;;;17.12;100.00;99951.27;1692330;83;21647;-71
2021/05/28 04:23:55;;;;;;;25.17;20.80;;;;;;;17.11;100.00;99954.86;1693001;83;21168;-72
2021/05/28 04:26:22;;;;;;;28.50;21.42;;;;;;;17.08;100.00;99955.92;1693018;83;21086;-74
2021/05/28 04:28:50;;;;;;;26.50;21.90;;;;;;;17.09;100.00;99958.09;1715199;83;21075;-69
2021/05/28 04:31:17;;;;;;;27.35;20.70;;;;;;;17.09;100.00;99958.97;1715246;83;21240;-69
2021/05/28 04:33:45;;;;;;;23.55;19.45;;;;;;;17.08;100.00;99957.73;1724402;82;21091;-69
2021/05/28 04:36:12;;;;;;;26.87;21.05;;;;;;;17.07;100.00;99958.67;1713425;82;21112;-69
2021/05/28 04:38:40;;;;;;;20.57;17.23;;;;;;;17.07;100.00;99958.67;1705834;82;21618;-68
2021/05/28 04:41:07;;;;;;;26.23;20.57;;;;;;;17.06;100.00;99963.63;1699666;82;21119;-69
2021/05/28 04:43:34;;;;;;;26.68;19.75;;;;;;;17.07;100.00;99961.33;1701605;82;21497;-69
2021/05/28 04:46:02;;;;;;;26.27;19.80;;;;;;;17.10;100.00;99958.48;1702597;82;21144;-68
2021/05/28 04:48:29;;;;;;;27.07;20.23;;;;;;;17.11;100.00;99955.70;1700724;82;21107;-69
2021/05/28 04:50:55;;;;;;;24.15;17.82;;;;;;;17.14;100.00;99961.33;1698537;83;21080;-69
2021/05/28 04:53:23;;;;;;;22.60;18.32;;;;;;;17.12;100.00;99956.09;1698759;83;21105;-69
2021/05/28 04:55:50;;;;;;;27.37;20.37;;;;;;;17.15;100.00;99965.68;1736018;81;21156;-69
2021/05/28 04:58:17;;;;;;;18.12;14.53;;;;;;;17.15;100.00;99961.69;1736349;81;21058;-70
2021/05/28 05:00:46;;;;;;;23.73;19.67;;;;;;;17.17;100.00;99967.28;1733700;81;21573;-70
2021/05/28 05:03:13;;;;;;;20.08;16.30;;;;;;;17.20;100.00;99967.55;1743370;81;21044;-68
2021/05/28 05:05:40;;;;;;;23.57;19.02;;;;;;;17.22;100.00;99970.96;1756224;81;21121;-69
2021/05/28 05:08:08;;;;;;;23.30;19.32;;;;;;;17.24;100.00;99962.41;1735043;82;21110;-68
2021/05/28 05:10:36;;;;;;;21.52;16.90;;;;;;;17.26;99.96;99963.16;1735478;81;21112;-69
2021/05/28 05:13:13;;;;;;;26.37;19.85;;;;;;;17.21;99.68;99961.29;1735793;82;21110;-69
2021/05/28 05:15:41;;;;;;;23.32;19.25;;;;;;;17.19;99.77;99955.21;1740809;81;21265;-69
2021/05/28 05:18:10;;;;;;;22.85;17.25;;;;;;;17.19;99.83;99961.38;1736447;81;21073;-69
2021/05/28 05:20:37;;;;;;;21.10;18.02;;;;;;;17.19;99.84;99952.55;1736991;81;22088;-68
2021/05/28 05:23:05;;;;;;;21.73;18.07;;;;;;;17.18;99.91;99956.15;1735937;82;21139;-71
2021/05/28 05:25:32;;;;;;;19.52;16.77;;;;;;;17.19;100.00;99957.88;1736246;82;21633;-71
2021/05/28 05:27:59;;;;;;;23.05;17.52;;;;;;;17.20;100.00;99955.57;1735556;82;21647;-71
2021/05/28 05:30:26;;;;;;;24.05;17.60;;;;;;;17.24;100.00;99955.75;1734603;82;21049;-70
2021/05/28 05:32:53;;;;;;;23.07;19.65;;;;;;;17.24;99.66;99957.08;1734744;82;21553;-70
2021/05/28 05:35:20;;;;;;;22.60;17.80;;;;;;;17.26;99.84;99956.50;1734535;82;22589;-69
2021/05/28 05:37:47;;;;;;;21.05;17.32;;;;;;;17.28;100.00;99956.41;1741854;82;21083;-70
2021/05/28 05:40:14;;;;;;;18.37;16.02;;;;;;;17.29;99.79;99958.94;1742648;82;21045;-69
2021/05/28 05:42:41;;;;;;;19.35;16.48;;;;;;;17.29;99.58;99960.27;1742824;81;21103;-71
2021/05/28 05:45:11;;;;;;;22.32;17.62;;;;;;;17.28;99.44;99962.58;1742884;82;21552;-71
2021/05/28 05:47:38;;;;;;;18.92;16.60;;;;;;;17.28;99.52;99959.91;1742440;82;21085;-70
2021/05/28 05:50:05;;;;;;;18.60;15.98;;;;;;;17.30;99.65;99960.67;1770973;80;21091;-69
2021/05/28 05:52:32;;;;;;;19.05;15.05;;;;;;;17.36;99.80;99959.38;1768230;80;21086;-69
2021/05/28 05:54:59;;;;;;;20.32;15.18;;;;;;;17.38;99.21;99964.97;1743050;80;21106;-71
2021/05/28 05:57:27;;;;;;;17.07;15.25;;;;;;;17.38;98.85;99960.98;1742640;82;21079;-72
2021/05/28 05:59:53;;;;;;;20.50;17.10;;;;;;;17.39;98.91;99961.38;1742484;82;21083;-71
2021/05/28 06:02:20;;;;;;;16.48;13.88;;;;;;;17.42;98.87;99956.80;1763063;80;21080;-71
2021/05/28 06:04:47;;;;;;;18.75;14.78;;;;;;;17.43;98.70;99956.67;1754407;80;21618;-71
2021/05/28 06:07:14;;;;;;;15.32;10.85;;;;;;;17.47;98.72;99949.34;1753791;80;21104;-72
2021/05/28 06:09:44;;;;;;;10.18;8.53;;;;;;;17.54;98.66;99950.63;1742803;81;21130;-72
2021/05/28 06:12:11;;;;;;;15.05;12.20;;;;;;;17.66;98.70;99951.09;1742842;82;21049;-71
2021/05/28 06:14:40;;;;;;;11.40;9.68;;;;;;;17.78;98.26;99950.27;1742599;81;21052;-70
2021/05/28 06:17:07;;;;;;;13.98;12.45;;;;;;;17.94;97.68;99965.19;1746784;80;21111;-72
2021/05/28 06:19:34;;;;;;;15.75;12.58;;;;;;;18.05;96.89;99953.78;1743147;80;21100;-72
2021/05/28 06:22:00;;;;;;;13.80;11.83;;;;;;;18.15;96.29;99953.03;1742832;80;22108;-72
2021/05/28 06:24:27;;;;;;;15.08;13.20;;;;;;;18.28;95.84;99952.98;1746811;80;21313;-72
2021/05/28 06:26:56;;;;;;;13.35;11.48;;;;;;;18.35;95.54;99952.06;1749425;80;21065;-71
2021/05/28 06:29:24;;;;;;;15.40;11.57;;;;;;;18.46;95.41;99950.80;1759916;80;21107;-72
2021/05/28 06:31:50;;;;;;;12.28;10.60;;;;;;;18.56;94.54;99950.98;1742786;80;21131;-71
2021/05/28 06:34:22;;;;;;;10.68;9.28;;;;;;;18.63;93.49;99950.44;1743402;80;21089;-71
2021/05/28 06:36:47;;;;;;;13.00;11.65;;;;;;;18.75;93.02;99950.47;1742801;80;21084;-72
2021/05/28 06:39:14;;;;;;;12.43;9.88;;;;;;;18.90;92.74;99952.05;1736977;81;21096;-71
2021/05/28 06:41:43;;;;;;;10.63;9.03;;;;;;;19.05;91.90;99950.91;1736053;82;21581;-72
2021/05/28 06:44:09;;;;;;;13.43;9.48;;;;;;;19.16;90.07;99959.91;1742597;81;21042;-72
2021/05/28 06:46:38;;;;;;;12.47;9.23;;;;;;;19.23;89.66;99954.01;1743371;81;21131;-71
2021/05/28 06:49:05;;;;;;;8.98;7.95;;;;;;;19.38;89.04;99949.30;1734731;81;21216;-72
2021/05/28 06:51:32;;;;;;;9.43;7.97;;;;;;;19.47;87.48;99943.25;1734503;82;21087;-71
2021/05/28 06:53:59;;;;;;;7.92;7.12;;;;;;;19.61;86.60;99942.68;1734852;81;21131;-72
2021/05/28 06:56:26;;;;;;;9.80;8.88;;;;;;;19.81;85.87;99948.69;1736002;82;21708;-71
2021/05/28 06:58:53;;;;;;;9.33;8.35;;;;;;;19.95;84.17;99947.60;1735110;82;21406;-71
2021/05/28 07:01:21;;;;;;;11.55;10.00;;;;;;;20.03;84.23;99944.31;1734776;81;21096;-74
2021/05/28 07:03:49;;;;;;;9.53;8.48;;;;;;;20.16;82.97;99933.50;1742113;81;21108;-70
2021/05/28 07:06:15;;;;;;;9.88;8.88;;;;;;;20.33;83.05;99937.83;1736213;81;21139;-72
2021/05/28 07:08:45;;;;;;;12.23;9.20;;;;;;;20.57;81.42;99935.53;1738946;81;21599;-73
2021/05/28 07:11:12;;;;;;;10.08;7.50;;;;;;;20.71;78.45;99938.41;1738792;81;21796;-71
2021/05/28 07:13:40;;;;;;;8.30;7.10;;;;;;;20.76;79.37;99939.37;1739397;81;21072;-72
2021/05/28 07:16:07;;;;;;;11.95;7.83;;;;;;;20.88;78.68;99935.66;1752884;81;21229;-71
2021/05/28 07:18:34;;;;;;;12.60;8.08;;;;;;;20.99;78.26;99935.62;1736097;81;21079;-72
2021/05/28 07:21:02;;;;;;;10.05;8.80;;;;;;;21.05;77.60;99940.94;1736721;81;21091;-72
2021/05/28 07:23:41;;;;;;;11.88;9.05;;;;;;;21.07;77.20;99940.32;1733738;82;21268;-75
2021/05/28 07:26:06;;;;;;;10.95;9.10;;;;;;;21.09;77.52;99943.23;1693500;79;21104;-69
2021/05/28 07:28:33;;;;;;;11.05;9.58;;;;;;;21.13;77.33;99942.00;1679607;84;21064;-70
2021/05/28 07:31:00;;;;;;;12.23;8.93;;;;;;;21.24;76.85;99941.10;1671619;84;21201;-70
2021/05/28 07:33:28;;;;;;;12.60;10.03;;;;;;;21.38;76.75;99933.23;1649733;84;21149;-71
2021/05/28 07:35:56;;;;;;;12.13;10.35;;;;;;;21.52;76.04;99928.91;1638946;86;21185;-69
2021/05/28 07:38:23;;;;;;;10.98;9.43;;;;;;;21.63;74.85;99932.02;1638501;86;21664;-70
2021/05/28 07:40:50;;;;;;;12.68;10.38;;;;;;;21.86;73.57;99921.97;1669793;82;21077;-72
2021/05/28 07:43:19;;;;;;;11.20;9.10;;;;;;;22.26;71.93;99926.51;1677952;85;21133;-71
2021/05/28 07:45:50;;;;;;;11.08;9.15;;;;;;;22.72;71.59;99921.02;1668013;85;21092;-73
2021/05/28 07:48:20;;;;;;;11.43;9.40;;;;;;;23.32;68.80;99918.70;1677512;85;21124;-72
2021/05/28 07:50:56;;;;;;;10.75;8.95;;;;;;;23.91;64.14;99920.27;1621607;86;21657;-73
2021/05/28 07:53:22;;;;;;;12.07;9.60;;;;;;;24.34;64.07;99912.53;1650039;85;21090;-73
2021/05/28 07:55:50;;;;;;;10.10;7.87;;;;;;;24.75;62.44;99911.16;1643854;82;21116;-69
2021/05/28 07:58:19;;;;;;;10.13;7.67;;;;;;;24.99;61.53;99907.02;1652564;86;21084;-69
2021/05/28 08:00:47;;;;;;;14.68;9.20;;;;;;;25.16;60.91;99912.03;1654962;86;21126;-70
2021/05/28 08:03:14;;;;;;;9.10;7.97;;;;;;;25.22;58.66;99914.14;1702966;84;21061;-70
2021/05/28 08:05:43;;;;;;;9.88;8.05;;;;;;;25.03;58.75;99914.63;1681853;84;21641;-70
2021/05/28 08:08:11;;;;;;;11.18;7.92;;;;;;;24.99;58.50;99909.70;1689165;84;21668;-70
2021/05/28 08:10:41;;;;;;;8.00;6.97;;;;;;;25.13;58.51;99907.80;1716065;80;21101;-72
2021/05/28 08:13:08;;;;;;;8.30;7.50;;;;;;;25.39;57.15;99904.31;1732974;81;21164;-73
2021/05/28 08:16:05;;;;;;;8.90;7.62;;;;;;;25.51;57.10;99897.64;1694835;83;21206;-75
2021/05/28 08:18:43;;;;;;;;;;;;;;;25.60;55.70;99906.12;1744184;80;21473;-74
2021/05/28 08:21:38;;;;;;;16.37;8.83;;;;;;;25.46;55.16;99898.62;1742820;82;20288;-74
2021/05/28 08:24:27;;;;;;;13.22;8.28;;;;;;;25.25;55.21;99894.44;1723500;81;21146;-72
2021/05/28 08:26:53;;;;;;;12.35;8.53;;;;;;;25.11;56.92;99894.47;1668307;85;21138;-70
2021/05/28 08:29:20;;;;;;;14.50;9.58;;;;;;;24.95;57.09;99897.55;1663997;84;21082;-70
2021/05/28 08:31:49;;;;;;;10.85;8.00;;;;;;;24.91;56.85;99893.83;1677514;85;21095;-72
2021/05/28 08:34:18;;;;;;;8.88;7.08;;;;;;;25.07;56.66;99892.25;1674155;85;21116;-70
2021/05/28 08:36:45;;;;;;;12.63;8.30;;;;;;;25.08;55.62;99892.61;1676157;85;21068;-71
2021/05/28 08:39:32;;;;;;;10.03;8.43;;;;;;;25.08;56.09;99884.53;1675097;83;21695;-72
2021/05/28 08:41:59;;;;;;;10.60;8.45;;;;;;;25.19;56.63;99881.62;1674090;85;21637;-71
2021/05/28 08:44:26;;;;;;;12.43;8.20;;;;;;;25.58;55.65;99878.47;1667423;84;21091;-71
2021/05/28 08:46:53;;;;;;;13.78;8.78;;;;;;;25.84;53.84;99866.83;1668707;84;21134;-72
2021/05/28 08:49:23;;;;;;;14.20;9.13;;;;;;;25.83;54.05;99868.66;1671707;84;21663;-72
2021/05/28 08:51:51;;;;;;;10.78;8.45;;;;;;;25.98;53.11;99867.59;1667535;84;22386;-72
2021/05/28 08:54:38;;;;;;;12.35;9.65;;;;;;;26.11;52.22;99861.72;1665680;85;21115;-72
2021/05/28 08:57:05;;;;;;;9.88;8.68;;;;;;;26.35;52.09;99862.30;1649439;85;21142;-72
2021/05/28 08:59:32;;;;;;;13.90;8.00;;;;;;;26.34;52.05;99853.84;1621041;87;21812;-72
2021/05/28 09:01:59;;;;;;;17.52;10.00;;;;;;;26.29;52.38;99858.91;1633088;87;21131;-71
2021/05/28 09:04:26;;;;;;;15.23;8.45;;;;;;;26.28;51.30;99850.48;1618697;87;21647;-72
2021/05/28 09:06:53;;;;;;;14.43;9.45;;;;;;;26.32;51.29;99851.84;1646275;87;21108;-72
2021/05/28 09:09:40;;;;;;;11.20;7.83;;;;;;;26.31;50.06;99844.74;1626945;86;21079;-74
2021/05/28 09:12:10;;;;;;;9.58;7.60;;;;;;;26.28;51.58;99850.48;1650834;85;21054;-73
2021/05/28 09:14:41;;;;;;;10.20;8.43;;;;;;;26.13;51.01;99848.39;1654600;86;21059;-72
2021/05/28 09:17:11;;;;;;;13.53;9.83;;;;;;;25.99;51.61;99848.19;1626916;86;21138;-73
2021/05/28 09:19:39;;;;;;;10.50;9.03;;;;;;;25.88;50.92;99849.33;1628954;86;21159;-73
2021/05/28 09:22:09;;;;;;;11.93;8.78;;;;;;;25.74;49.65;99844.88;1629138;87;21688;-73
2021/05/28 09:24:41;;;;;;;12.50;7.67;;;;;;;25.61;51.21;99844.98;1684287;80;21124;-73
2021/05/28 09:27:23;;;;;;;9.40;7.37;;;;;;;25.46;52.01;99841.51;1674471;84;21072;-73
2021/05/28 09:30:15;;;;;;;13.50;9.25;;;;;;;25.22;52.09;99847.61;1694056;84;21093;-73
2021/05/28 09:32:47;;;;;;;16.85;8.58;;;;;;;25.11;52.32;99846.48;1692881;84;21070;-73
2021/05/28 09:35:21;;;;;;;15.95;10.18;;;;;;;25.12;52.78;99845.47;1691211;83;21705;-74
2021/05/28 09:37:51;;;;;;;12.03;8.78;;;;;;;25.10;51.41;99842.11;1694943;84;21093;-74
2021/05/28 09:40:28;;;;;;;17.85;8.13;;;;;;;25.05;52.23;99839.02;1686831;82;21701;-74
2021/05/28 09:43:02;;;;;;;19.37;8.53;;;;;;;24.99;53.10;99836.98;1694492;84;21109;-72
2021/05/28 09:45:40;;;;;;;12.73;7.95;;;;;;;24.85;52.63;99843.27;1672752;84;21146;-73
2021/05/28 09:48:22;;;;;;;10.58;8.20;;;;;;;24.76;52.94;99841.50;1686073;84;21081;-71
2021/05/28 09:50:53;;;;;;;12.50;8.38;;;;;;;24.60;53.41;99840.02;1685932;84;21118;-72
2021/05/28 09:53:40;;;;;;;17.65;7.60;;;;;;;24.46;53.48;99837.33;1683718;84;26419;-72
2021/05/28 09:56:30;;;;;;;18.75;8.63;;;;;;;24.44;54.60;99838.81;1696472;80;21390;-75
2021/05/28 09:59:07;;;;;;;17.42;8.75;;;;;;;24.43;54.93;99833.11;1723721;82;21185;-72
2021/05/28 10:01:36;;;;;;;11.10;8.23;;;;;;;24.44;55.80;99826.70;1723248;82;21088;-73
2021/05/28 10:04:10;;;;;;;13.43;8.03;;;;;;;24.54;55.58;99823.96;1713676;82;21103;-73
2021/05/28 10:06:38;;;;;;;13.83;7.33;;;;;;;24.85;55.18;99822.22;1717316;82;21123;-73
2021/05/28 10:09:08;;;;;;;12.30;7.12;;;;;;;25.32;53.76;99817.34;1712141;82;21115;-72
2021/05/28 10:11:37;;;;;;;10.18;7.30;;;;;;;25.72;51.36;99810.48;1664682;79;21115;-73
2021/05/28 10:14:06;;;;;;;10.17;8.43;;;;;;;26.10;51.18;99809.61;1651393;85;21102;-76
2021/05/28 10:16:35;;;;;;;8.90;7.97;;;;;;;26.61;49.73;99812.75;1668664;84;21103;-76
2021/05/28 10:19:02;;;;;;;12.68;7.92;;;;;;;27.10;47.48;99800.55;1664148;85;21100;-74
2021/05/28 10:21:28;;;;;;;8.80;7.83;;;;;;;27.43;46.96;99797.82;1661217;85;21768;-74
2021/05/28 10:23:59;;;;;;;10.08;7.90;;;;;;;27.94;46.23;99798.30;1654194;85;21113;-76
2021/05/28 10:26:36;;;;;;;11.03;8.03;;;;;;;28.50;45.02;99794.91;1687654;81;21082;-73
2021/05/28 10:29:03;;;;;;;17.17;8.00;;;;;;;28.92;43.00;99790.84;1682614;84;21114;-72
2021/05/28 10:31:57;;;;;;;10.28;7.70;;;;;;;28.93;43.08;99791.16;1688710;83;21615;-72
2021/05/28 10:34:27;;;;;;;10.03;7.95;;;;;;;28.71;43.24;99789.32;1684720;84;21092;-72
2021/05/28 10:36:57;;;;;;;8.20;6.65;;;;;;;28.47;43.24;99787.16;1686890;83;21082;-71
2021/05/28 10:39:27;;;;;;;17.70;7.80;;;;;;;28.10;43.95;99783.32;1682437;84;21063;-74
2021/05/28 10:42:11;;;;;;;8.78;7.87;;;;;;;27.89;43.95;99784.47;1608507;82;21122;-76
2021/05/28 10:44:44;;;;;;;13.65;7.22;;;;;;;27.49;43.42;99775.47;1634007;85;21593;-75
2021/05/28 10:47:19;;;;;;;13.20;7.58;;;;;;;27.21;45.30;99784.01;1643923;86;21655;-73
2021/05/28 10:49:52;;;;;;;18.35;8.35;;;;;;;27.23;46.67;99777.92;1635759;86;21107;-74
2021/05/28 10:52:31;;;;;;;14.38;9.00;;;;;;;27.28;47.30;99766.07;1642723;85;21148;-74
2021/05/28 10:55:20;;;;;;;10.68;8.30;;;;;;;27.20;47.14;99771.52;1584748;85;21145;-73
2021/05/28 10:57:53;;;;;;;7.78;6.97;;;;;;;26.93;47.69;99768.67;1584536;89;21169;-77
2021/05/28 11:00:30;;;;;;;8.95;7.08;;;;;;;26.72;48.29;99770.55;1619978;87;21642;-75
2021/05/28 11:03:01;;;;;;;11.90;7.85;;;;;;;26.73;48.26;99766.83;1607139;87;21173;-78
2021/05/28 11:05:44;;;;;;;8.28;7.37;;;;;;;26.65;47.98;99758.23;1647168;84;21118;-78
2021/05/28 11:08:48;;;;;;;11.12;8.38;;;;;;;26.48;48.19;99756.02;1631703;86;21137;-75
2021/05/28 11:11:40;;;;;;;12.75;7.47;;;;;;;26.36;48.26;99745.20;1653616;82;21111;-75
2021/05/28 11:14:11;;;;;;;9.93;7.60;;;;;;;26.21;49.13;99740.98;1650066;86;21845;-75
2021/05/28 11:16:59;;;;;;;17.10;8.03;;;;;;;26.55;48.95;99734.11;1627790;88;21091;-74
2021/05/28 11:20:05;;;;;;;8.40;7.03;;;;;;;26.91;47.95;99733.70;1650238;86;21130;-77
2021/05/28 11:22:39;;;;;;;14.13;7.65;;;;;;;27.27;45.93;99727.07;1641595;86;21117;-76
2021/05/28 11:25:17;;;;;;;7.97;6.62;;;;;;;27.40;45.36;99718.73;1616416;87;22153;-75
2021/05/28 11:27:51;;;;;;;11.80;7.10;;;;;;;27.40;45.28;99722.80;1693483;83;21865;-74
2021/05/28 11:30:21;;;;;;;12.60;7.30;;;;;;;27.53;44.97;99721.38;1694469;82;21117;-75
2021/05/28 11:32:52;;;;;;;12.50;7.33;;;;;;;27.52;44.86;99712.94;1699687;83;21119;-73
2021/05/28 11:35:40;;;;;;;10.30;7.47;;;;;;;27.27;44.59;99710.34;1699006;83;21103;-73
2021/05/28 11:38:10;;;;;;;8.30;7.45;;;;;;;26.92;44.71;99707.05;1698086;83;21579;-75
2021/05/28 11:40:41;;;;;;;8.60;6.40;;;;;;;26.53;45.73;99706.91;1702045;81;21191;-71